Time;durP1;ratioP1;P1;durP2;ratioP2;P2;SDS_P1;SDS_P2;PMS_P1;PMS_P2;Temp;Humidity;BMP_temperature;BMP_pressure;BME280_temperature;BME280_humidity;BME280_pressure;Samples;Min_cycle;Max_cycle;Signal;HPM_P1;HPM_P2
2023/01/07 00:00:15;;;;;;;83.18;68.45;;;;;;;-0.07;100.00;101946.16;5032888;28;20080;-79
2023/01/07 00:02:43;;;;;;;66.05;56.67;;;;;;;-0.06;100.00;101947.84;5032495;28;20502;-79
2023/01/07 00:05:10;;;;;;;66.85;60.08;;;;;;;0.20;100.00;101950.41;5033221;28;20049;-79
2023/01/07 00:07:39;;;;;;;63.10;56.35;;;;;;;0.08;100.00;101953.88;5032659;28;20478;-80
2023/01/07 00:10:27;;;;;;;58.03;51.53;;;;;;;0.15;100.00;101958.59;5033258;28;20513;-79
2023/01/07 00:13:07;;;;;;;52.35;47.80;;;;;;;0.23;100.00;101951.03;5031562;28;20092;-79
2023/01/07 00:15:37;;;;;;;107.72;75.32;;;;;;;0.09;100.00;101945.94;5032134;28;20099;-80
2023/01/07 00:18:05;;;;;;;120.70;83.30;;;;;;;-0.22;100.00;101955.06;5033860;28;20052;-79
2023/01/07 00:20:35;;;;;;;95.15;73.15;;;;;;;-0.22;100.00;101957.69;5033061;28;20568;-79
2023/01/07 00:23:04;;;;;;;82.15;71.50;;;;;;;-0.58;100.00;101966.22;5033588;28;20046;-79
2023/01/07 00:25:33;;;;;;;93.00;75.30;;;;;;;-0.44;100.00;101962.69;5032826;28;20096;-79
2023/01/07 00:30:51;;;;;;;73.13;65.18;;;;;;;-0.04;100.00;101963.41;5031445;28;20057;-79
2023/01/07 00:33:20;;;;;;;81.00;71.32;;;;;;;0.06;100.00;101968.81;5032954;28;20486;-79
2023/01/07 00:35:47;;;;;;;70.38;62.20;;;;;;;-0.22;100.00;101970.72;5032870;28;20045;-79
2023/01/07 00:38:16;;;;;;;81.47;68.03;;;;;;;-0.12;100.00;101969.19;5031029;28;20053;-80
2023/01/07 00:43:25;;;;;;;88.47;71.90;;;;;;;-0.33;100.00;101966.25;5029816;28;20064;-80
2023/01/07 00:46:01;;;;;;;82.50;70.90;;;;;;;-0.22;100.00;101967.28;5029119;28;20537;-79
2023/01/07 00:48:35;;;;;;;81.20;71.85;;;;;;;-0.15;100.00;101974.63;5030464;28;20078;-79
2023/01/07 00:51:03;;;;;;;76.93;68.65;;;;;;;-0.22;100.00;101970.72;5029889;28;20600;-80
2023/01/07 00:53:30;;;;;;;73.55;63.53;;;;;;;-0.18;100.00;101976.56;5030601;28;20111;-79
2023/01/07 00:55:58;;;;;;;68.15;61.00;;;;;;;-0.19;100.00;101982.75;5029744;28;20101;-79
2023/01/07 00:58:26;;;;;;;64.80;58.22;;;;;;;-0.14;100.00;101978.88;5029372;28;21283;-80
2023/01/07 01:00:55;;;;;;;71.00;64.30;;;;;;;-0.18;100.00;101987.03;5028423;28;20127;-79
2023/01/07 01:03:22;;;;;;;61.10;55.40;;;;;;;-0.44;100.00;101971.34;5028584;28;20045;-79
2023/01/07 01:05:53;;;;;;;58.83;52.88;;;;;;;-0.71;100.00;101967.03;5026729;28;20553;-80
2023/01/07 01:08:26;;;;;;;57.97;52.50;;;;;;;-0.63;100.00;101961.34;5028961;28;20057;-80
2023/01/07 01:10:56;;;;;;;60.13;54.42;;;;;;;-0.41;100.00;101958.09;5030922;28;20049;-79
2023/01/07 01:16:21;;;;;;;61.65;56.33;;;;;;;-0.83;100.00;101953.97;5027882;28;20502;-79
2023/01/07 01:18:52;;;;;;;55.70;51.03;;;;;;;-0.66;100.00;101961.53;5026751;28;20049;-80
2023/01/07 01:21:19;;;;;;;59.03;54.28;;;;;;;-0.71;100.00;101963.59;5029586;28;20053;-79
2023/01/07 01:23:49;;;;;;;55.58;50.97;;;;;;;-0.84;100.00;101952.31;5027589;28;20053;-79
2023/01/07 01:26:20;;;;;;;78.80;70.40;;;;;;;-0.61;100.00;101948.16;5029973;28;20045;-79
2023/01/07 01:28:47;;;;;;;72.57;65.57;;;;;;;-0.78;100.00;101959.75;5029708;28;20051;-79
2023/01/07 01:31:15;;;;;;;74.97;66.93;;;;;;;-0.91;100.00;101959.69;5028425;28;20100;-79
2023/01/07 01:33:47;;;;;;;84.07;75.38;;;;;;;-0.80;100.00;101956.38;5027737;28;20049;-79
2023/01/07 01:36:14;;;;;;;;;;;;;;;-0.86;100.00;101962.84;5030049;28;20053;-79
2023/01/07 01:38:43;;;;;;;112.65;89.00;;;;;;;-0.84;100.00;101971.41;5028515;28;19978;-79
2023/01/07 01:41:12;;;;;;;100.82;78.88;;;;;;;-0.91;100.00;101962.31;5030356;28;20107;-78
2023/01/07 01:43:43;;;;;;;83.78;74.93;;;;;;;-0.96;100.00;101961.78;5027717;28;20127;-80
2023/01/07 01:46:16;;;;;;;76.63;68.65;;;;;;;-0.95;100.00;101959.06;5025702;28;20053;-80
2023/01/07 01:48:56;;;;;;;64.10;57.60;;;;;;;-0.89;100.00;101959.59;5027764;28;20545;-79
2023/01/07 01:51:27;;;;;;;63.83;57.70;;;;;;;-0.88;100.00;101956.06;5026505;28;20047;-79
2023/01/07 01:53:58;;;;;;;58.85;53.33;;;;;;;-1.13;100.00;101960.25;5028431;28;20600;-79
2023/01/07 01:56:39;;;;;;;59.67;54.10;;;;;;;-1.28;100.00;101966.47;5029791;28;20058;-80
2023/01/07 01:59:10;;;;;;;54.70;49.75;;;;;;;-1.72;100.00;101967.53;5029765;28;20045;-79
2023/01/07 02:01:39;;;;;;;58.33;53.33;;;;;;;-1.41;100.00;101962.03;5026540;28;20615;-78
2023/01/07 02:07:04;;;;;;;57.58;52.35;;;;;;;-1.41;100.00;101967.25;5028638;28;20052;-80
2023/01/07 02:09:31;;;;;;;57.97;53.25;;;;;;;-1.25;100.00;101974.94;5026570;28;20199;-80
2023/01/07 02:12:19;;;;;;;55.25;50.35;;;;;;;-1.29;100.00;101967.41;5029013;28;20100;-79
2023/01/07 02:15:22;;;;;;;53.67;49.17;;;;;;;-1.54;100.00;101960.28;5028751;28;20560;-80
2023/01/07 02:18:11;;;;;;;53.38;48.72;;;;;;;-1.30;100.00;101965.72;5026566;28;20045;-80
2023/01/07 02:21:02;;;;;;;54.65;50.08;;;;;;;-1.43;100.00;101958.69;5030313;28;20057;-79
2023/01/07 02:24:07;;;;;;;52.75;48.30;;;;;;;-1.27;100.00;101962.91;5027945;28;20553;-80
2023/01/07 02:27:19;;;;;;;106.20;78.78;;;;;;;-1.31;100.00;101953.63;5028592;28;20099;-79
2023/01/07 02:30:18;;;;;;;104.80;80.78;;;;;;;-1.34;100.00;101965.09;5027356;28;20103;-80
2023/01/07 02:33:08;;;;;;;127.43;87.82;;;;;;;-1.44;100.00;101959.63;5026028;28;20095;-80
2023/01/07 02:35:49;;;;;;;66.15;59.13;;;;;;;-1.47;100.00;101972.84;5026925;28;20593;-79
2023/01/07 02:38:24;;;;;;;77.85;67.75;;;;;;;-1.56;100.00;101959.59;5027002;28;20788;-79
2023/01/07 02:40:58;;;;;;;65.95;58.58;;;;;;;-1.52;100.00;101964.50;5026041;28;20046;-80
2023/01/07 02:43:36;;;;;;;72.25;61.75;;;;;;;-1.38;100.00;101961.00;5028311;28;20112;-79
2023/01/07 02:46:09;;;;;;;60.63;54.53;;;;;;;-2.01;100.00;101962.34;5025474;28;20476;-80
2023/01/07 02:48:39;;;;;;;77.60;60.42;;;;;;;-1.74;100.00;101957.19;5026402;28;20144;-79
2023/01/07 02:51:05;;;;;;;70.68;63.35;;;;;;;-1.72;100.00;101965.75;5024749;28;20108;-79
2023/01/07 02:53:33;;;;;;;92.82;75.47;;;;;;;-1.80;100.00;101959.34;5030992;28;20111;-79
2023/01/07 02:56:17;;;;;;;73.22;64.38;;;;;;;-1.83;100.00;101957.75;5028765;28;20042;-79
2023/01/07 02:59:06;;;;;;;77.50;68.60;;;;;;;-1.85;100.00;101973.50;5030811;28;20053;-79
2023/01/07 03:05:06;;;;;;;82.20;69.95;;;;;;;-2.19;100.00;101971.25;4998052;28;20080;-81
2023/01/07 03:07:45;;;;;;;71.13;60.95;;;;;;;-2.32;100.00;101968.56;4983961;28;20042;-78
2023/01/07 03:10:24;;;;;;;68.10;61.03;;;;;;;-2.28;100.00;101962.22;5007858;28;20046;-81
2023/01/07 03:12:58;;;;;;;68.80;61.03;;;;;;;-2.10;100.00;101970.69;5008955;28;20100;-81
2023/01/07 03:15:30;;;;;;;77.63;69.60;;;;;;;-2.05;100.00;101968.66;5009356;28;20042;-81
2023/01/07 03:18:02;;;;;;;67.03;60.35;;;;;;;-2.09;100.00;101972.38;5010308;28;20041;-81
2023/01/07 03:20:34;;;;;;;73.22;65.85;;;;;;;-2.07;100.00;101973.13;5002980;28;20050;-81
2023/01/07 03:23:06;;;;;;;67.60;60.05;;;;;;;-2.23;100.00;101964.56;5005992;28;20054;-81
2023/01/07 03:25:37;;;;;;;66.10;58.85;;;;;;;-2.19;100.00;101976.47;5010989;28;20049;-81
2023/01/07 03:28:07;;;;;;;73.50;60.80;;;;;;;-2.19;100.00;101971.25;5009267;28;20065;-82
2023/01/07 03:30:35;;;;;;;93.72;76.88;;;;;;;-2.00;100.00;101977.00;5014150;28;20471;-78
2023/01/07 03:33:16;;;;;;;73.93;63.53;;;;;;;-2.03;100.00;101978.97;5014991;28;20096;-81
2023/01/07 03:35:56;;;;;;;60.25;53.65;;;;;;;-2.37;100.00;101973.19;5012630;28;20057;-81
2023/01/07 03:38:26;;;;;;;55.55;50.00;;;;;;;-2.29;100.00;101968.38;5003537;28;20491;-81
2023/01/07 03:41:04;;;;;;;54.85;49.70;;;;;;;-2.13;100.00;101963.91;5010759;28;20552;-81
2023/01/07 03:43:30;;;;;;;57.72;52.33;;;;;;;-2.21;100.00;101960.09;5001464;28;20135;-81
2023/01/07 03:45:57;;;;;;;73.55;62.30;;;;;;;-2.36;100.00;101964.44;5014876;28;20494;-81
2023/01/07 03:48:29;;;;;;;70.82;62.25;;;;;;;-2.21;100.00;101968.75;5013595;28;20050;-82
2023/01/07 03:51:12;;;;;;;77.00;67.23;;;;;;;-2.16;100.00;101971.91;5005797;28;20053;-82
2023/01/07 03:53:49;;;;;;;61.22;55.33;;;;;;;-2.34;100.00;101967.81;5004697;28;20495;-82
2023/01/07 03:56:17;;;;;;;59.42;54.45;;;;;;;-2.37;100.00;101970.59;5003943;28;20045;-81
2023/01/07 03:58:46;;;;;;;57.75;53.08;;;;;;;-2.54;100.00;101969.00;5003991;28;20054;-80
2023/01/07 04:01:22;;;;;;;55.15;50.25;;;;;;;-2.49;100.00;101964.34;5008374;28;20049;-81
2023/01/07 04:03:49;;;;;;;68.13;62.03;;;;;;;-2.46;100.00;101968.53;5024346;28;20045;-81
2023/01/07 04:06:25;;;;;;;117.72;93.72;;;;;;;-2.47;100.00;101975.50;5033589;28;20462;-81
2023/01/07 04:08:53;;;;;;;122.63;96.68;;;;;;;-2.39;100.00;101975.91;5032889;28;20143;-81
2023/01/07 04:11:23;;;;;;;99.38;80.70;;;;;;;-2.45;100.00;101984.06;5033360;28;20038;-81
2023/01/07 04:13:52;;;;;;;71.57;62.72;;;;;;;-2.82;100.00;101977.56;5033436;28;20045;-81
2023/01/07 04:16:22;;;;;;;66.70;59.80;;;;;;;-2.74;100.00;101970.16;5032168;28;20099;-81
2023/01/07 04:18:50;;;;;;;72.93;64.95;;;;;;;-2.55;100.00;101965.53;5033245;28;20053;-81
2023/01/07 04:21:21;;;;;;;67.30;56.90;;;;;;;-2.62;100.00;101969.44;5033964;28;20198;-81
2023/01/07 04:23:49;;;;;;;68.07;60.72;;;;;;;-2.70;100.00;101966.44;5017097;28;20053;-81
2023/01/07 04:26:16;;;;;;;67.93;57.45;;;;;;;-2.71;100.00;101967.38;5034336;28;20561;-81
2023/01/07 04:28:44;;;;;;;63.85;57.42;;;;;;;-2.85;100.00;101972.53;5033883;28;20407;-81
2023/01/07 04:31:14;;;;;;;60.65;54.50;;;;;;;-2.97;100.00;101973.22;5033682;28;20041;-81
2023/01/07 04:33:42;;;;;;;60.25;54.05;;;;;;;-2.91;100.00;101976.31;5025809;28;20072;-81
2023/01/07 04:36:12;;;;;;;59.63;54.17;;;;;;;-2.69;100.00;101982.88;5033409;28;20053;-81
2023/01/07 04:38:42;;;;;;;61.38;55.05;;;;;;;-2.64;100.00;101980.84;5033040;28;20053;-81
2023/01/07 04:41:09;;;;;;;63.67;57.72;;;;;;;-2.68;100.00;101971.56;5019652;28;20097;-81
2023/01/07 04:43:37;;;;;;;57.33;51.90;;;;;;;-2.65;100.00;101976.59;5020517;28;20049;-81
2023/01/07 04:46:04;;;;;;;60.30;54.63;;;;;;;-2.65;100.00;101977.44;5033159;28;20045;-81
2023/01/07 04:48:31;;;;;;;60.05;54.00;;;;;;;-2.67;100.00;101976.66;5033275;28;20080;-81
2023/01/07 04:50:58;;;;;;;57.55;51.78;;;;;;;-2.59;100.00;101976.22;5033151;28;20107;-82
2023/01/07 04:53:25;;;;;;;61.22;55.05;;;;;;;-2.69;100.00;101985.47;5032867;28;20041;-81
2023/01/07 04:55:54;;;;;;;58.90;53.53;;;;;;;-2.88;100.00;101981.34;5032679;28;20107;-81
2023/01/07 04:58:21;;;;;;;57.80;52.20;;;;;;;-3.01;100.00;101983.81;5032706;28;20513;-81
2023/01/07 05:00:48;;;;;;;55.47;49.58;;;;;;;-2.82;100.00;101983.59;5033049;28;20049;-81
2023/01/07 05:03:14;;;;;;;55.92;50.53;;;;;;;-2.79;100.00;101992.97;5031204;28;20057;-81
2023/01/07 05:05:41;;;;;;;56.33;50.60;;;;;;;-2.75;100.00;101997.09;5027635;28;20108;-81
2023/01/07 05:08:08;;;;;;;56.67;50.75;;;;;;;-2.80;100.00;101996.53;5030015;28;20057;-81
2023/01/07 05:10:35;;;;;;;55.92;50.45;;;;;;;-3.04;100.00;101990.94;5032695;28;20131;-81
2023/01/07 05:13:04;;;;;;;59.65;53.53;;;;;;;-2.81;100.00;102003.50;5030180;28;20448;-81
2023/01/07 05:15:31;;;;;;;61.08;54.83;;;;;;;-2.78;100.00;102010.28;5030279;28;20541;-81
2023/01/07 05:17:58;;;;;;;82.10;67.72;;;;;;;-2.78;100.00;102005.91;5032992;28;20497;-81
2023/01/07 05:20:24;;;;;;;147.73;102.80;;;;;;;-2.85;100.00;102009.78;5030913;28;20490;-81
2023/01/07 05:22:51;;;;;;;200.82;118.68;;;;;;;-3.05;100.00;102003.13;5032550;28;20049;-81
2023/01/07 05:25:18;;;;;;;336.33;161.52;;;;;;;-3.04;100.00;102007.38;5032651;28;20041;-81
2023/01/07 05:27:45;;;;;;;126.80;83.32;;;;;;;-3.15;100.00;102011.50;5033635;28;20078;-82
2023/01/07 05:30:13;;;;;;;82.05;67.45;;;;;;;-3.07;100.00;102009.31;5031730;28;20053;-81
2023/01/07 05:32:40;;;;;;;108.53;79.00;;;;;;;-2.97;100.00;102009.63;5031615;28;20057;-81
2023/01/07 05:35:07;;;;;;;93.03;69.25;;;;;;;-2.97;100.00;102020.03;5031239;28;20041;-81
2023/01/07 05:37:34;;;;;;;69.53;61.90;;;;;;;-3.18;100.00;102012.50;5032592;28;20072;-81
2023/01/07 05:40:01;;;;;;;70.22;62.65;;;;;;;-3.06;100.00;102009.22;5032137;28;20115;-81
2023/01/07 05:42:27;;;;;;;95.20;76.90;;;;;;;-2.97;100.00;102010.47;5032974;28;20049;-81
2023/01/07 05:44:54;;;;;;;96.05;75.97;;;;;;;-2.97;100.00;102007.88;5031397;28;20103;-81
2023/01/07 05:47:22;;;;;;;122.53;84.18;;;;;;;-2.70;100.00;102015.03;5031781;28;20049;-81
2023/01/07 05:49:49;;;;;;;106.80;77.95;;;;;;;-2.67;100.00;102013.09;5031613;28;20076;-81
2023/01/07 05:52:16;;;;;;;63.30;56.40;;;;;;;-2.92;100.00;102003.25;5031808;28;20499;-81
2023/01/07 05:54:43;;;;;;;77.20;60.78;;;;;;;-3.05;100.00;102005.72;5034612;28;20041;-82
2023/01/07 05:57:11;;;;;;;66.05;59.03;;;;;;;-2.88;100.00;102014.31;5042484;28;20053;-81
2023/01/07 05:59:37;;;;;;;84.45;65.50;;;;;;;-3.16;100.00;102015.03;5030853;28;20049;-81
2023/01/07 06:02:05;;;;;;;75.50;61.78;;;;;;;-3.23;100.00;102017.13;5031471;28;20506;-80
2023/01/07 06:04:34;;;;;;;72.43;62.53;;;;;;;-3.10;100.00;102022.50;5032454;28;20053;-80
2023/01/07 06:07:01;;;;;;;92.43;69.63;;;;;;;-2.92;100.00;102021.47;5041074;28;20144;-82
2023/01/07 06:09:29;;;;;;;84.93;67.15;;;;;;;-3.08;100.00;102031.06;5033777;28;20057;-79
2023/01/07 06:11:58;;;;;;;79.97;66.72;;;;;;;-3.02;100.00;102025.50;5031414;28;20049;-79
2023/01/07 06:14:26;;;;;;;79.00;63.63;;;;;;;-2.77;100.00;102030.16;5030411;28;20115;-80
2023/01/07 06:16:53;;;;;;;85.63;65.50;;;;;;;-2.60;100.00;102030.03;5029909;28;20045;-79
2023/01/07 06:19:22;;;;;;;89.20;66.53;;;;;;;-2.36;100.00;102027.78;5030073;28;20057;-79
2023/01/07 06:21:54;;;;;;;88.38;68.60;;;;;;;-2.19;100.00;102042.38;5030715;28;20447;-80
2023/01/07 06:24:23;;;;;;;85.35;67.43;;;;;;;-1.99;100.00;102030.78;5031032;28;20116;-79
2023/01/07 06:26:50;;;;;;;82.22;65.00;;;;;;;-1.76;100.00;102031.16;5031267;28;20099;-79
2023/01/07 06:29:19;;;;;;;87.60;70.40;;;;;;;-1.54;100.00;102034.13;5030835;28;20053;-79
2023/01/07 06:31:54;;;;;;;89.22;73.43;;;;;;;-1.18;100.00;102024.91;5029917;28;20104;-79
2023/01/07 06:34:21;;;;;;;78.93;70.05;;;;;;;-1.03;100.00;102025.69;5028854;28;20050;-79
2023/01/07 06:36:56;;;;;;;68.90;61.50;;;;;;;-0.73;100.00;102023.75;5025741;28;20056;-79
2023/01/07 06:42:06;;;;;;;51.20;46.60;;;;;;;0.36;100.00;102018.94;5028567;28;20522;-79
2023/01/07 06:44:35;;;;;;;53.13;48.42;;;;;;;0.75;100.00;102022.28;5028064;28;20054;-79
2023/01/07 06:47:04;;;;;;;66.57;59.85;;;;;;;0.99;100.00;102030.16;5029204;28;20554;-80
2023/01/07 06:49:32;;;;;;;89.22;76.15;;;;;;;1.22;100.00;102025.88;5028185;28;20049;-79
2023/01/07 06:52:00;;;;;;;61.40;55.85;;;;;;;1.60;100.00;102035.25;5026360;28;20053;-81
2023/01/07 06:54:27;;;;;;;68.53;61.92;;;;;;;1.55;100.00;102032.16;5025727;28;20600;-79
2023/01/07 06:56:55;;;;;;;91.95;73.32;;;;;;;1.46;100.00;102033.69;5029666;28;20045;-79
2023/01/07 06:59:22;;;;;;;103.97;77.25;;;;;;;2.09;100.00;102022.81;5027114;28;20053;-78
2023/01/07 07:01:51;;;;;;;145.05;86.15;;;;;;;2.18;100.00;102030.84;5028942;28;20498;-79
2023/01/07 07:04:22;;;;;;;66.82;59.85;;;;;;;2.22;100.00;102020.94;5031455;28;20450;-79
2023/01/07 07:06:51;;;;;;;65.25;58.72;;;;;;;2.15;100.00;102033.69;5033181;28;20572;-79
2023/01/07 07:09:36;;;;;;;67.28;60.63;;;;;;;3.51;100.00;102028.94;5033400;28;20038;-79
2023/01/07 07:12:06;;;;;;;86.68;72.00;;;;;;;3.07;100.00;102025.56;5031616;28;20107;-79
2023/01/07 07:14:35;;;;;;;91.13;74.40;;;;;;;3.11;100.00;102026.97;5032430;28;20051;-79
2023/01/07 07:17:05;;;;;;;67.80;60.97;;;;;;;3.06;100.00;102026.53;5032754;28;20048;-79
2023/01/07 07:19:35;;;;;;;61.85;56.38;;;;;;;2.87;100.00;102030.59;5032588;28;20046;-80
2023/01/07 07:22:02;;;;;;;64.30;58.08;;;;;;;3.98;100.00;102011.78;5033074;28;20045;-79
2023/01/07 07:24:38;;;;;;;51.70;47.75;;;;;;;3.77;100.00;102018.88;5033074;28;20041;-79
2023/01/07 07:27:06;;;;;;;53.60;49.63;;;;;;;4.00;100.00;102006.41;5033165;28;20156;-80
2023/01/07 07:29:42;;;;;;;51.75;47.95;;;;;;;4.31;100.00;102009.84;5032514;28;20049;-79
2023/01/07 07:32:10;;;;;;;50.38;46.58;;;;;;;5.11;100.00;102008.88;5031978;28;20135;-79
2023/01/07 07:34:37;;;;;;;49.88;45.97;;;;;;;5.00;100.00;102003.75;5031211;28;20042;-80
2023/01/07 07:37:08;;;;;;;47.65;44.17;;;;;;;5.68;100.00;102009.78;5032273;28;20064;-78
2023/01/07 07:39:35;;;;;;;52.17;48.35;;;;;;;5.62;100.00;102006.91;5033248;28;20491;-78
2023/01/07 07:42:03;;;;;;;55.90;51.45;;;;;;;6.47;100.00;102013.00;5033052;28;20056;-78
2023/01/07 07:44:35;;;;;;;100.57;74.10;;;;;;;6.72;100.00;102004.38;5033450;28;20053;-79
2023/01/07 07:47:04;;;;;;;59.42;53.80;;;;;;;7.57;100.00;101997.69;5028178;28;20546;-79
2023/01/07 07:49:33;;;;;;;56.90;52.08;;;;;;;7.02;100.00;102005.00;5028657;28;20580;-78
2023/01/07 07:52:00;;;;;;;57.40;52.63;;;;;;;7.10;100.00;101999.78;5033562;28;20046;-79
2023/01/07 07:54:28;;;;;;;60.25;54.92;;;;;;;8.15;100.00;102011.25;5034308;28;20493;-80
2023/01/07 07:56:59;;;;;;;58.95;53.70;;;;;;;8.31;100.00;102010.50;5034369;28;20049;-79
2023/01/07 07:59:28;;;;;;;56.97;52.10;;;;;;;7.87;100.00;102002.69;5033595;28;20100;-79
2023/01/07 08:01:59;;;;;;;55.28;50.40;;;;;;;7.99;100.00;102009.34;5019299;28;20053;-79
2023/01/07 08:04:27;;;;;;;54.35;49.42;;;;;;;8.69;100.00;102010.00;5014261;28;20046;-80
2023/01/07 08:06:55;;;;;;;62.35;56.15;;;;;;;9.62;100.00;102009.72;5014657;28;20571;-79
2023/01/07 08:09:24;;;;;;;64.85;58.67;;;;;;;9.28;100.00;102014.34;5014413;28;20054;-80
2023/01/07 08:11:52;;;;;;;59.20;54.28;;;;;;;7.82;100.00;102003.13;5015580;28;20498;-79
2023/01/07 08:14:21;;;;;;;52.53;48.75;;;;;;;8.03;100.00;102008.03;5014237;28;20050;-79
2023/01/07 08:16:52;;;;;;;52.63;48.90;;;;;;;8.36;100.00;102009.03;5013961;28;20538;-79
2023/01/07 08:19:23;;;;;;;51.90;48.30;;;;;;;7.53;100.00;102011.34;5014904;28;20057;-79
2023/01/07 08:21:56;;;;;;;49.03;45.72;;;;;;;5.95;100.00;102011.69;5014775;28;20054;-79
2023/01/07 08:24:22;;;;;;;49.63;46.05;;;;;;;7.53;100.00;102008.72;5006706;28;20073;-79
2023/01/07 08:26:54;;;;;;;51.03;47.42;;;;;;;6.27;100.00;102012.28;5014134;28;20565;-80
2023/01/07 08:29:21;;;;;;;51.58;47.72;;;;;;;7.73;100.00;102018.13;5012941;28;20057;-79
2023/01/07 08:31:50;;;;;;;49.92;46.20;;;;;;;6.56;100.00;102027.94;5013388;28;20474;-79
2023/01/07 08:34:17;;;;;;;50.53;46.50;;;;;;;7.68;100.00;102019.56;5006790;28;20065;-79
2023/01/07 08:36:48;;;;;;;50.33;46.50;;;;;;;6.81;100.00;102026.44;5012780;28;20076;-80
2023/01/07 08:39:15;;;;;;;49.53;45.88;;;;;;;8.19;100.00;102021.34;5013400;28;20502;-80
2023/01/07 08:41:43;;;;;;;50.67;47.08;;;;;;;7.33;100.00;102034.50;5014757;28;20439;-79
2023/01/07 08:44:10;;;;;;;49.97;46.35;;;;;;;6.71;100.00;102030.94;5014225;28;20050;-80
2023/01/07 08:46:41;;;;;;;51.10;47.33;;;;;;;8.10;100.00;102032.06;5013953;28;20046;-79
2023/01/07 08:49:15;;;;;;;49.95;46.30;;;;;;;6.24;100.00;102034.50;5001759;28;20060;-79
2023/01/07 08:51:43;;;;;;;51.60;47.85;;;;;;;8.48;100.00;102036.06;5013591;28;20578;-80
2023/01/07 08:54:13;;;;;;;52.47;48.67;;;;;;;8.25;100.00;102044.53;5013935;28;20454;-79
2023/01/07 08:56:40;;;;;;;49.47;46.15;;;;;;;8.65;100.00;102037.78;5014023;28;20050;-79
2023/01/07 08:59:08;;;;;;;51.80;47.92;;;;;;;7.72;100.00;102036.81;5014127;28;20478;-80
2023/01/07 09:01:38;;;;;;;51.17;47.50;;;;;;;9.58;100.00;102028.75;5013242;28;20125;-79
2023/01/07 09:04:05;;;;;;;50.90;47.45;;;;;;;7.13;100.00;102039.13;5027192;28;20064;-79
2023/01/07 09:06:33;;;;;;;52.95;49.03;;;;;;;7.14;100.00;102032.88;5033320;28;20046;-79
2023/01/07 09:09:01;;;;;;;51.15;47.38;;;;;;;7.98;100.00;102036.78;5033403;28;20107;-79
2023/01/07 09:14:17;;;;;;;51.38;47.70;;;;;;;6.63;100.00;102026.41;5026217;28;20041;-80
2023/01/07 09:16:53;;;;;;;52.28;48.22;;;;;;;9.13;100.00;102020.31;5032923;28;20045;-78
2023/01/07 09:19:22;;;;;;;53.45;49.58;;;;;;;7.36;100.00;102031.56;5029624;28;20055;-79
2023/01/07 09:21:50;;;;;;;61.08;54.85;;;;;;;7.53;100.00;102027.22;5040535;28;20076;-82
2023/01/07 09:24:18;;;;;;;55.88;51.30;;;;;;;8.74;100.00;102012.13;5035930;28;20056;-78
2023/01/07 09:26:48;;;;;;;52.58;48.55;;;;;;;6.89;100.00;102022.03;5031602;28;20045;-79
2023/01/07 09:29:17;;;;;;;55.83;51.58;;;;;;;8.60;100.00;102012.78;5032651;28;20494;-78
2023/01/07 09:31:44;;;;;;;55.53;51.45;;;;;;;7.43;100.00;102019.38;5025867;28;20123;-79
2023/01/07 09:34:11;;;;;;;55.08;50.97;;;;;;;7.78;100.00;102013.19;5028604;28;20068;-78
2023/01/07 09:36:40;;;;;;;54.13;49.92;;;;;;;7.28;100.00;102016.47;5031902;28;20045;-80
2023/01/07 09:39:27;;;;;;;57.58;52.97;;;;;;;8.58;100.00;102012.94;5032113;28;20049;-80
2023/01/07 09:42:04;;;;;;;58.85;54.35;;;;;;;8.71;100.00;102009.81;5029021;28;20123;-77
2023/01/07 09:44:47;;;;;;;54.88;50.67;;;;;;;6.41;100.00;102012.63;5029151;28;20592;-79
2023/01/07 09:47:26;;;;;;;56.30;51.65;;;;;;;7.03;100.00;102006.66;5032441;28;20100;-80
2023/01/07 09:50:02;;;;;;;55.28;51.17;;;;;;;7.86;100.00;101988.59;5029847;28;20061;-80
2023/01/07 09:52:34;;;;;;;55.60;51.58;;;;;;;8.82;100.00;101990.13;5024423;28;20698;-80
2023/01/07 09:55:07;;;;;;;57.88;53.58;;;;;;;10.63;100.00;101984.31;5029150;28;20056;-81
2023/01/07 09:57:35;;;;;;;56.63;52.80;;;;;;;8.46;100.00;101988.56;5029200;28;20045;-80
2023/01/07 10:00:04;;;;;;;58.83;54.58;;;;;;;10.32;100.00;101979.00;5029210;28;20545;-80
2023/01/07 10:02:42;;;;;;;56.58;52.38;;;;;;;7.23;100.00;101988.81;5025456;28;20049;-81
2023/01/07 10:05:26;;;;;;;57.63;53.45;;;;;;;10.63;100.00;101983.50;5008993;28;20105;-80
2023/01/07 10:08:04;;;;;;;59.75;55.58;;;;;;;12.47;100.00;101975.88;5009510;28;20056;-80
2023/01/07 10:10:38;;;;;;;57.50;53.45;;;;;;;10.61;100.00;101973.03;5008219;28;20042;-81
2023/01/07 10:13:25;;;;;;;58.92;54.72;;;;;;;7.14;100.00;101972.09;5010703;28;20101;-79
2023/01/07 10:16:00;;;;;;;58.38;54.28;;;;;;;6.49;100.00;101968.81;5007857;28;20411;-80
2023/01/07 10:18:43;;;;;;;54.47;50.63;;;;;;;8.31;100.00;101961.00;5009788;28;20458;-81
2023/01/07 10:21:15;;;;;;;;;;;;;;;8.71;100.00;101962.13;5011562;28;20054;-80
2023/01/07 10:23:46;;;;;;;55.53;51.25;;;;;;;10.07;100.00;101952.50;5011393;28;19922;-81
2023/01/07 10:26:21;;;;;;;53.13;49.05;;;;;;;9.17;100.00;101958.03;5010522;28;20046;-81
2023/01/07 10:28:54;;;;;;;53.92;50.05;;;;;;;8.66;100.00;101956.50;5007094;28;20041;-80
2023/01/07 10:31:22;;;;;;;;;;;;;;;9.18;100.00;101943.78;5012858;28;20502;-80
2023/01/07 10:33:50;;;;;;;54.75;50.65;;;;;;;9.33;100.00;101953.72;5010181;28;19921;-80
2023/01/07 10:36:23;;;;;;;53.13;49.58;;;;;;;10.06;100.00;101953.53;5011960;28;20481;-80
2023/01/07 10:38:59;;;;;;;55.42;51.22;;;;;;;9.48;100.00;101944.06;5012720;28;20140;-81
2023/01/07 10:41:33;;;;;;;54.78;50.58;;;;;;;10.07;100.00;101935.75;5015891;28;20099;-81
2023/01/07 10:44:22;;;;;;;53.42;49.35;;;;;;;11.55;100.00;101928.34;5014571;28;20470;-80
2023/01/07 10:47:00;;;;;;;54.70;50.80;;;;;;;11.37;100.00;101922.56;5010440;28;20104;-80
2023/01/07 10:49:50;;;;;;;53.35;49.45;;;;;;;11.19;100.00;101929.03;5015408;28;20049;-81
2023/01/07 10:52:33;;;;;;;56.22;52.05;;;;;;;11.29;100.00;101914.69;5014850;28;20104;-81
2023/01/07 10:55:15;;;;;;;56.90;52.53;;;;;;;9.67;100.00;101912.88;5013594;28;20426;-80
2023/01/07 10:57:42;;;;;;;55.20;51.40;;;;;;;10.08;100.00;101902.91;5015708;28;20050;-81
2023/01/07 11:00:14;;;;;;;58.03;53.97;;;;;;;12.47;100.00;101900.44;5013008;28;20041;-80
2023/01/07 11:02:44;;;;;;;56.95;52.75;;;;;;;13.37;100.00;101901.63;5017412;28;20054;-81
2023/01/07 11:05:12;;;;;;;57.00;52.78;;;;;;;11.67;100.00;101910.94;5030775;28;20046;-81
2023/01/07 11:07:43;;;;;;;55.88;52.03;;;;;;;12.12;100.00;101905.59;5032830;28;20053;-81
2023/01/07 11:10:15;;;;;;;56.65;52.60;;;;;;;10.68;100.00;101907.56;5030695;28;20049;-81
2023/01/07 11:12:46;;;;;;;59.47;55.33;;;;;;;13.37;100.00;101896.28;5029949;28;20549;-80
2023/01/07 11:15:22;;;;;;;59.00;54.67;;;;;;;12.71;100.00;101886.75;5033161;28;20052;-80
2023/01/07 11:17:53;;;;;;;59.05;54.78;;;;;;;14.33;100.00;101878.41;5034590;28;20111;-80
2023/01/07 11:20:45;;;;;;;59.40;55.10;;;;;;;12.78;100.00;101873.47;5033464;28;20042;-81
2023/01/07 11:23:40;;;;;;;60.13;55.78;;;;;;;14.60;100.00;101867.78;5018344;28;20523;-80
2023/01/07 11:26:13;;;;;;;60.60;56.25;;;;;;;12.38;100.00;101873.91;4974251;28;20049;-80
2023/01/07 11:28:50;;;;;;;60.25;55.88;;;;;;;11.95;100.00;101866.88;5035217;28;20129;-82
2023/01/07 11:31:19;;;;;;;61.58;57.20;;;;;;;13.11;100.00;101859.56;5034961;28;20052;-80
2023/01/07 11:33:52;;;;;;;60.15;55.95;;;;;;;12.80;100.00;101855.44;5031332;28;20041;-80
2023/01/07 11:36:19;;;;;;;63.53;58.88;;;;;;;12.57;100.00;101859.13;4987153;28;20111;-80
2023/01/07 11:38:46;;;;;;;61.58;57.03;;;;;;;11.93;100.00;101858.25;5052769;28;20045;-78
2023/01/07 11:41:31;;;;;;;61.78;57.53;;;;;;;11.96;100.00;101848.06;5051794;28;20535;-78
2023/01/07 11:43:59;;;;;;;62.95;58.50;;;;;;;11.82;100.00;101852.34;5052734;28;20095;-79